Time;durP1;ratioP1;P1;durP2;ratioP2;P2;SDS_P1;SDS_P2;PMS_P1;PMS_P2;Temp;Humidity;BMP_temperature;BMP_pressure;BME280_temperature;BME280_humidity;BME280_pressure;Samples;Min_cycle;Max_cycle;Signal;HPM_P1;HPM_P2
2023/10/24 00:00:52;;;;;;;7.07;3.20;;;17.30;57.70;;;;;;5108622;27;45278;-70
2023/10/24 00:03:20;;;;;;;4.60;2.83;;;17.30;57.60;;;;;;5107958;27;47267;-70
2023/10/24 00:05:48;;;;;;;4.07;3.03;;;17.30;57.60;;;;;;5108230;27;45317;-70
2023/10/24 00:08:15;;;;;;;4.43;2.90;;;17.30;57.70;;;;;;5108231;27;45262;-70
2023/10/24 00:10:41;;;;;;;4.72;2.67;;;17.30;57.60;;;;;;5108193;27;45323;-70
2023/10/24 00:13:08;;;;;;;6.43;2.88;;;17.30;57.60;;;;;;5107801;27;46631;-70
2023/10/24 00:15:35;;;;;;;5.88;2.60;;;17.30;57.60;;;;;;5106932;27;45316;-70
2023/10/24 00:18:02;;;;;;;5.60;2.97;;;17.30;57.70;;;;;;5108132;27;45383;-70
2023/10/24 00:20:30;;;;;;;5.70;2.95;;;17.30;57.60;;;;;;5108164;27;45399;-70
2023/10/24 00:22:57;;;;;;;5.45;2.45;;;17.20;57.60;;;;;;5105150;27;45305;-69
2023/10/24 00:25:24;;;;;;;4.35;2.55;;;17.30;57.60;;;;;;5107774;27;45378;-69
2023/10/24 00:27:51;;;;;;;3.42;2.72;;;17.20;57.60;;;;;;5112194;27;45543;-70
2023/10/24 00:30:18;;;;;;;5.15;2.97;;;17.20;57.60;;;;;;5128653;27;45282;-70
2023/10/24 00:32:49;;;;;;;7.03;2.63;;;17.20;57.70;;;;;;5127941;27;45491;-70
2023/10/24 00:35:16;;;;;;;4.20;2.80;;;17.20;57.60;;;;;;5128096;27;45462;-70
2023/10/24 00:37:45;;;;;;;5.38;3.05;;;17.20;57.60;;;;;;5128458;27;45255;-70
2023/10/24 00:40:12;;;;;;;5.18;2.97;;;17.20;57.70;;;;;;5128577;27;45249;-69
2023/10/24 00:42:39;;;;;;;5.32;2.72;;;17.20;57.60;;;;;;5128120;27;46330;-70
2023/10/24 00:45:07;;;;;;;3.95;2.50;;;17.20;57.70;;;;;;5128154;27;45322;-70
2023/10/24 00:47:34;;;;;;;5.07;2.75;;;17.20;57.60;;;;;;5128383;27;45278;-70
2023/10/24 00:50:01;;;;;;;4.25;2.70;;;17.20;57.70;;;;;;5128630;27;45137;-70
2023/10/24 00:52:28;;;;;;;4.82;2.60;;;17.20;57.60;;;;;;5127941;27;47348;-70
2023/10/24 00:54:56;;;;;;;4.18;2.60;;;17.20;57.70;;;;;;5128211;27;45321;-70
2023/10/24 00:57:23;;;;;;;4.13;2.53;;;17.20;57.70;;;;;;5128611;27;45286;-70
2023/10/24 00:59:50;;;;;;;3.05;2.53;;;17.10;57.60;;;;;;5128313;27;45357;-70
2023/10/24 01:02:17;;;;;;;3.65;2.85;;;17.20;57.70;;;;;;5127878;27;46300;-70
2023/10/24 01:04:43;;;;;;;3.95;2.30;;;17.10;57.60;;;;;;5128008;27;45282;-70
2023/10/24 01:07:10;;;;;;;4.55;2.78;;;17.20;57.70;;;;;;5128299;27;45377;-70
2023/10/24 01:09:37;;;;;;;2.85;2.03;;;17.20;57.60;;;;;;5128210;27;45422;-70
2023/10/24 01:12:06;;;;;;;2.85;2.30;;;17.20;57.60;;;;;;5127197;27;45688;-70
2023/10/24 01:14:33;;;;;;;3.30;2.55;;;17.20;57.60;;;;;;5127409;27;45334;-70
2023/10/24 01:17:00;;;;;;;4.45;2.65;;;17.20;57.70;;;;;;5127955;27;45500;-70
2023/10/24 01:19:27;;;;;;;2.83;2.38;;;17.10;57.60;;;;;;5127949;27;45323;-70
2023/10/24 01:21:55;;;;;;;5.90;2.78;;;17.10;57.50;;;;;;5127698;27;45219;-70
2023/10/24 01:24:22;;;;;;;2.83;2.30;;;17.20;57.70;;;;;;5127868;27;45262;-70
2023/10/24 01:26:49;;;;;;;4.15;2.30;;;17.10;57.50;;;;;;5130545;27;45270;-70
2023/10/24 01:29:16;;;;;;;3.97;2.05;;;17.10;57.60;;;;;;5131589;27;45433;-70
2023/10/24 01:31:43;;;;;;;2.75;2.20;;;17.10;57.60;;;;;;5131110;27;46404;-70
2023/10/24 01:34:10;;;;;;;3.38;2.40;;;17.10;57.70;;;;;;5130992;27;45225;-70
2023/10/24 01:36:37;;;;;;;2.53;2.00;;;17.10;57.70;;;;;;5119382;27;45451;-70
2023/10/24 01:39:07;;;;;;;3.40;2.25;;;17.10;57.70;;;;;;5110899;27;45248;-70
2023/10/24 01:41:33;;;;;;;3.60;2.22;;;17.10;57.70;;;;;;5110274;27;46521;-70
2023/10/24 01:44:00;;;;;;;3.45;2.40;;;17.10;57.60;;;;;;5110530;27;45204;-70
2023/10/24 01:46:27;;;;;;;3.35;2.22;;;17.10;57.70;;;;;;5110466;27;45327;-70
2023/10/24 01:48:54;;;;;;;2.13;1.92;;;17.10;57.70;;;;;;5110727;27;45397;-70
2023/10/24 01:51:21;;;;;;;4.13;2.38;;;17.10;57.60;;;;;;5110306;27;45361;-70
2023/10/24 01:53:48;;;;;;;2.90;2.20;;;17.10;57.60;;;;;;5110370;27;45344;-70
2023/10/24 01:56:16;;;;;;;4.65;2.22;;;17.10;57.60;;;;;;5109663;27;45219;-70
2023/10/24 01:58:43;;;;;;;3.35;2.20;;;17.10;57.60;;;;;;5110078;27;45457;-70
2023/10/24 02:01:10;;;;;;;5.80;1.88;;;17.10;57.50;;;;;;5110132;27;46560;-70
2023/10/24 02:03:37;;;;;;;4.90;2.20;;;17.10;57.50;;;;;;5109967;27;45262;-70
2023/10/24 02:06:04;;;;;;;2.95;2.00;;;17.10;57.50;;;;;;5114562;27;45267;-70
2023/10/24 02:08:30;;;;;;;3.25;2.35;;;17.10;57.50;;;;;;5130869;27;45410;-69
2023/10/24 02:10:57;;;;;;;4.72;2.17;;;17.10;57.60;;;;;;5130525;27;45327;-69
2023/10/24 02:13:25;;;;;;;3.45;2.15;;;17.10;57.50;;;;;;5130616;27;45531;-70
2023/10/24 02:15:54;;;;;;;3.38;2.33;;;17.10;57.50;;;;;;5130909;27;45405;-69
2023/10/24 02:18:21;;;;;;;3.33;2.08;;;17.10;57.50;;;;;;5130651;27;45441;-69
2023/10/24 02:20:47;;;;;;;2.70;2.00;;;17.10;57.50;;;;;;5130444;27;46407;-69
2023/10/24 02:23:14;;;;;;;2.95;1.88;;;17.10;57.50;;;;;;5130282;27;45390;-69
2023/10/24 02:25:41;;;;;;;2.17;1.83;;;17.10;57.50;;;;;;5130503;27;45375;-69
2023/10/24 02:28:08;;;;;;;4.50;2.28;;;17.10;57.50;;;;;;5130669;27;45239;-69
2023/10/24 02:30:38;;;;;;;3.35;2.08;;;17.10;58.10;;;;;;5127464;27;45208;-70
2023/10/24 02:33:05;;;;;;;2.33;2.00;;;17.10;57.50;;;;;;5130164;27;45344;-69
2023/10/24 02:35:32;;;;;;;2.35;1.92;;;17.10;57.40;;;;;;5131237;27;45448;-68
2023/10/24 02:38:13;;;;;;;3.88;2.22;;;17.10;57.50;;;;;;5106112;27;45194;-70
2023/10/24 02:40:40;;;;;;;2.75;1.92;;;17.10;57.50;;;;;;5130106;27;47270;-68
2023/10/24 02:43:07;;;;;;;2.08;1.80;;;17.10;57.40;;;;;;5130455;27;45292;-68
2023/10/24 02:45:34;;;;;;;2.17;1.98;;;17.10;57.40;;;;;;5129456;27;45142;-69
2023/10/24 02:48:02;;;;;;;2.05;1.77;;;17.10;57.30;;;;;;5130147;27;45268;-69
2023/10/24 02:50:29;;;;;;;3.08;2.10;;;17.10;58.00;;;;;;5129847;27;45473;-69
2023/10/24 02:52:56;;;;;;;2.35;2.05;;;17.10;57.40;;;;;;5130025;27;45254;-69
2023/10/24 02:55:23;;;;;;;2.35;2.05;;;17.10;57.30;;;;;;5130486;27;45263;-69
2023/10/24 02:57:50;;;;;;;2.60;1.70;;;17.10;57.30;;;;;;5130177;27;45336;-70
2023/10/24 03:00:17;;;;;;;2.10;1.88;;;17.10;57.40;;;;;;5129534;27;45188;-70
2023/10/24 03:02:44;;;;;;;2.20;2.00;;;17.10;57.30;;;;;;5129876;27;45325;-70
2023/10/24 03:05:12;;;;;;;2.45;2.25;;;17.10;57.40;;;;;;5129945;27;45365;-70
2023/10/24 03:07:39;;;;;;;1.85;1.70;;;17.10;57.40;;;;;;5111760;27;45430;-69
2023/10/24 03:10:07;;;;;;;2.72;1.73;;;17.10;57.30;;;;;;5108913;27;46286;-70
2023/10/24 03:12:34;;;;;;;2.30;1.77;;;17.10;57.30;;;;;;5108762;27;45314;-70
2023/10/24 03:15:01;;;;;;;3.10;1.83;;;17.10;57.30;;;;;;5109264;27;45309;-70
2023/10/24 03:17:27;;;;;;;2.83;1.95;;;17.10;57.40;;;;;;5109123;27;45435;-70
2023/10/24 03:19:54;;;;;;;3.38;1.85;;;17.20;57.40;;;;;;5108694;27;45216;-70
2023/10/24 03:22:23;;;;;;;2.55;1.58;;;17.10;57.30;;;;;;5108769;27;45240;-70
2023/10/24 03:24:50;;;;;;;2.67;1.80;;;17.10;57.30;;;;;;5108889;27;45264;-70
2023/10/24 03:27:17;;;;;;;3.97;2.00;;;17.10;57.30;;;;;;5109104;27;45287;-69
2023/10/24 03:29:44;;;;;;;2.38;1.95;;;17.20;58.00;;;;;;5107846;27;45667;-70
2023/10/24 03:32:10;;;;;;;2.15;1.73;;;17.20;57.40;;;;;;5108553;27;45141;-70
2023/10/24 03:34:38;;;;;;;1.77;1.45;;;17.20;57.30;;;;;;5108689;27;45179;-70
2023/10/24 03:37:05;;;;;;;4.05;1.90;;;17.20;57.30;;;;;;5124793;27;45284;-70
2023/10/24 03:39:33;;;;;;;2.67;1.77;;;17.20;57.40;;;;;;5129070;27;45210;-70
2023/10/24 03:42:00;;;;;;;3.80;1.80;;;17.20;57.40;;;;;;5129131;27;45227;-70
2023/10/24 03:44:27;;;;;;;2.08;1.70;;;17.20;57.40;;;;;;5129395;27;45126;-70
2023/10/24 03:46:54;;;;;;;1.50;1.40;;;17.20;57.40;;;;;;5129348;27;45338;-70
2023/10/24 03:49:21;;;;;;;3.60;1.80;;;17.20;57.40;;;;;;5128679;27;46635;-70
2023/10/24 03:51:48;;;;;;;4.63;1.90;;;17.20;57.40;;;;;;5129897;27;45382;-70
2023/10/24 03:54:15;;;;;;;2.13;1.65;;;17.20;57.40;;;;;;5129181;27;45218;-70
2023/10/24 03:56:43;;;;;;;3.17;2.00;;;17.20;57.40;;;;;;5129990;27;45191;-70
2023/10/24 03:59:10;;;;;;;3.30;1.80;;;17.20;57.30;;;;;;5128822;27;45375;-70
2023/10/24 04:01:38;;;;;;;4.85;1.52;;;17.10;57.40;;;;;;5128759;27;45367;-70
2023/10/24 04:04:05;;;;;;;2.58;1.73;;;17.20;57.50;;;;;;5129043;27;45173;-70
2023/10/24 04:06:34;;;;;;;5.47;2.17;;;17.20;57.40;;;;;;5129157;27;45191;-70
2023/10/24 04:09:04;;;;;;;4.65;2.25;;;17.10;57.40;;;;;;5128609;27;46671;-69
2023/10/24 04:11:31;;;;;;;2.83;1.60;;;17.20;58.10;;;;;;5128720;27;45185;-70
2023/10/24 04:13:59;;;;;;;2.33;1.70;;;17.10;57.50;;;;;;5128051;27;45187;-70
2023/10/24 04:16:26;;;;;;;2.80;1.58;;;17.10;57.40;;;;;;5128966;27;45326;-70
2023/10/24 04:18:53;;;;;;;4.47;1.90;;;17.20;57.50;;;;;;5128604;27;47238;-70
2023/10/24 04:21:20;;;;;;;3.58;1.60;;;17.20;57.40;;;;;;5128486;27;45219;-69
2023/10/24 04:23:47;;;;;;;2.60;1.92;;;17.20;57.40;;;;;;5128328;27;45195;-69
2023/10/24 04:26:13;;;;;;;2.75;1.38;;;17.20;57.50;;;;;;5128684;27;45419;-69
2023/10/24 04:28:40;;;;;;;2.33;1.80;;;17.10;57.30;;;;;;5128437;27;45426;-69
2023/10/24 04:31:09;;;;;;;2.95;1.92;;;17.10;57.40;;;;;;5128681;27;45432;-70
2023/10/24 04:33:36;;;;;;;2.92;1.65;;;17.10;57.40;;;;;;5128043;27;45525;-70
2023/10/24 04:36:03;;;;;;;3.65;1.73;;;17.20;57.50;;;;;;5128535;27;45190;-69
2023/10/24 04:38:30;;;;;;;1.83;1.65;;;17.20;57.40;;;;;;5128209;27;45407;-69
2023/10/24 04:40:57;;;;;;;7.63;1.75;;;17.20;57.40;;;;;;5128300;27;45295;-69
2023/10/24 04:43:24;;;;;;;6.00;1.70;;;17.20;57.40;;;;;;5128296;27;45336;-69
2023/10/24 04:45:52;;;;;;;1.77;1.23;;;17.20;57.40;;;;;;5128457;27;45231;-69
2023/10/24 04:48:20;;;;;;;2.47;1.70;;;17.10;57.30;;;;;;5128062;27;46949;-69
2023/10/24 04:50:47;;;;;;;3.58;1.67;;;17.20;57.40;;;;;;5128062;27;45431;-70
2023/10/24 04:53:14;;;;;;;1.58;1.30;;;17.20;57.30;;;;;;5128219;27;45282;-69
2023/10/24 04:55:42;;;;;;;2.22;1.58;;;17.20;57.40;;;;;;5127681;27;45307;-70
2023/10/24 04:58:09;;;;;;;2.50;1.30;;;17.20;57.40;;;;;;5127661;27;45362;-70
2023/10/24 05:00:36;;;;;;;1.90;1.70;;;17.20;57.30;;;;;;5127298;27;45335;-69
2023/10/24 05:03:03;;;;;;;3.30;1.85;;;17.20;57.40;;;;;;5128076;27;45294;-69
2023/10/24 05:05:32;;;;;;;3.95;1.63;;;17.20;57.30;;;;;;5128272;27;45453;-69
2023/10/24 05:07:58;;;;;;;3.45;1.92;;;17.20;57.30;;;;;;5125303;27;45182;-69
2023/10/24 05:10:25;;;;;;;2.30;1.38;;;17.20;57.30;;;;;;5127931;27;45353;-69
2023/10/24 05:12:52;;;;;;;2.88;1.50;;;17.20;57.30;;;;;;5127989;27;45296;-69
2023/10/24 05:15:19;;;;;;;3.10;1.55;;;17.10;57.20;;;;;;5128562;27;45402;-69
2023/10/24 05:17:46;;;;;;;2.40;1.50;;;17.20;57.30;;;;;;5127527;27;46639;-69
2023/10/24 05:20:16;;;;;;;2.58;1.63;;;17.20;57.30;;;;;;5127609;27;45194;-69
2023/10/24 05:22:45;;;;;;;1.55;1.25;;;17.20;57.80;;;;;;5127608;27;45306;-69
2023/10/24 05:25:11;;;;;;;4.63;1.70;;;17.20;57.30;;;;;;5128297;27;45183;-69
2023/10/24 05:27:39;;;;;;;2.95;1.52;;;17.20;57.30;;;;;;5127662;27;46447;-69
2023/10/24 05:30:10;;;;;;;3.50;1.33;;;17.20;57.30;;;;;;5127541;27;45267;-69
2023/10/24 05:32:36;;;;;;;3.22;1.60;;;17.20;57.90;;;;;;5127400;27;45295;-69
2023/10/24 05:35:04;;;;;;;2.47;1.30;;;17.20;57.30;;;;;;5127747;27;45240;-69
2023/10/24 05:37:31;;;;;;;3.38;1.40;;;17.20;57.30;;;;;;5127441;27;46363;-69
2023/10/24 05:39:59;;;;;;;2.55;1.60;;;17.20;57.30;;;;;;5127583;27;45440;-68
2023/10/24 05:42:26;;;;;;;2.90;1.58;;;17.20;57.40;;;;;;5127303;27;45259;-68
2023/10/24 05:44:53;;;;;;;3.25;1.50;;;17.20;57.40;;;;;;5127177;27;45434;-69
2023/10/24 05:47:19;;;;;;;1.50;1.27;;;17.20;57.40;;;;;;5124357;27;46153;-69
2023/10/24 05:49:47;;;;;;;2.22;1.30;;;17.20;57.30;;;;;;5127059;27;45306;-69
2023/10/24 05:52:13;;;;;;;3.40;1.50;;;17.20;57.40;;;;;;5127488;27;45370;-69
2023/10/24 05:54:40;;;;;;;3.30;1.38;;;17.20;57.40;;;;;;5127601;27;45242;-69
2023/10/24 05:57:08;;;;;;;1.63;1.40;;;17.20;57.40;;;;;;5127431;27;46128;-69
2023/10/24 05:59:35;;;;;;;2.70;1.45;;;17.20;57.40;;;;;;5127209;27;46089;-67
2023/10/24 06:02:02;;;;;;;1.92;1.30;;;17.20;57.40;;;;;;5127431;27;45332;-70
2023/10/24 06:04:34;;;;;;;2.03;1.38;;;17.20;57.40;;;;;;5127228;27;45477;-69
2023/10/24 06:07:00;;;;;;;3.50;1.35;;;17.20;57.40;;;;;;5127128;27;45228;-69
2023/10/24 06:09:27;;;;;;;2.30;1.42;;;17.20;57.30;;;;;;5127154;27;45391;-69
2023/10/24 06:11:54;;;;;;;1.83;1.38;;;17.20;57.40;;;;;;5127258;27;45243;-69
2023/10/24 06:14:22;;;;;;;1.80;1.10;;;17.20;57.40;;;;;;5130681;27;45426;-70
2023/10/24 06:16:49;;;;;;;1.45;1.08;;;17.20;57.40;;;;;;5130834;27;46285;-70
2023/10/24 06:19:16;;;;;;;2.47;1.20;;;17.20;57.40;;;;;;5128681;27;45361;-74
2023/10/24 06:21:43;;;;;;;2.83;1.40;;;17.20;57.40;;;;;;5109896;27;45652;-73
2023/10/24 06:24:10;;;;;;;4.50;1.40;;;17.20;57.50;;;;;;5109689;27;45468;-73
2023/10/24 06:26:36;;;;;;;3.05;1.50;;;17.20;57.40;;;;;;5109150;27;45405;-73
2023/10/24 06:29:03;;;;;;;3.15;1.40;;;17.20;57.40;;;;;;5109756;27;45212;-73
2023/10/24 06:31:32;;;;;;;1.83;1.58;;;17.20;57.50;;;;;;5109825;27;45404;-72
2023/10/24 06:33:59;;;;;;;1.58;1.20;;;17.20;57.40;;;;;;5109041;27;45421;-73
2023/10/24 06:36:26;;;;;;;1.38;1.02;;;17.20;57.50;;;;;;5119714;27;46619;-73
2023/10/24 06:38:53;;;;;;;1.48;1.30;;;17.20;57.40;;;;;;5130253;27;45169;-72
2023/10/24 06:41:20;;;;;;;1.30;1.10;;;17.20;57.50;;;;;;5130404;27;45181;-72
2023/10/24 06:43:47;;;;;;;1.95;1.27;;;17.20;57.50;;;;;;5130539;27;45276;-74
2023/10/24 06:46:13;;;;;;;2.30;1.55;;;17.20;57.50;;;;;;5130242;27;46490;-72
2023/10/24 06:48:41;;;;;;;2.10;1.20;;;17.20;58.10;;;;;;5130312;27;45210;-72
2023/10/24 06:51:08;;;;;;;1.40;1.30;;;17.20;57.50;;;;;;5130160;27;45261;-71
2023/10/24 06:53:35;;;;;;;3.42;1.38;;;17.20;57.50;;;;;;5130336;27;45449;-72
2023/10/24 06:56:02;;;;;;;2.33;1.48;;;17.20;57.50;;;;;;5129956;27;45481;-71
2023/10/24 06:58:29;;;;;;;2.10;1.05;;;17.20;57.50;;;;;;5129744;27;45273;-72
2023/10/24 07:00:56;;;;;;;1.60;1.50;;;17.20;57.50;;;;;;5129886;27;45205;-71
2023/10/24 07:03:23;;;;;;;3.10;1.33;;;17.20;57.50;;;;;;5123353;27;45605;-72
2023/10/24 07:05:52;;;;;;;1.95;1.38;;;17.20;57.50;;;;;;5117132;27;46262;-72
2023/10/24 07:08:18;;;;;;;2.15;1.38;;;17.20;57.60;;;;;;5119654;27;45386;-72
2023/10/24 07:10:45;;;;;;;1.30;1.20;;;17.20;57.50;;;;;;5122913;27;45294;-73
2023/10/24 07:13:12;;;;;;;1.38;1.10;;;17.20;57.60;;;;;;5111964;27;45259;-72
2023/10/24 07:15:39;;;;;;;1.10;0.90;;;17.20;57.60;;;;;;5108823;27;46383;-72
2023/10/24 07:18:06;;;;;;;2.05;1.25;;;17.20;57.60;;;;;;5114914;27;45310;-71
2023/10/24 07:20:35;;;;;;;3.33;1.42;;;17.20;57.60;;;;;;5124648;27;47369;-72
2023/10/24 07:23:04;;;;;;;2.72;1.40;;;17.20;57.60;;;;;;5111937;27;45540;-71
2023/10/24 07:25:30;;;;;;;2.55;1.48;;;17.20;57.60;;;;;;5112150;27;46640;-72
2023/10/24 07:27:57;;;;;;;1.30;1.20;;;17.20;57.60;;;;;;5122284;27;45408;-70
2023/10/24 07:30:24;;;;;;;2.17;1.20;;;17.20;57.60;;;;;;5126535;27;45447;-72
2023/10/24 07:32:53;;;;;;;3.33;1.20;;;17.20;57.70;;;;;;5128396;27;45372;-72
2023/10/24 07:35:20;;;;;;;1.30;1.20;;;17.20;57.60;;;;;;5128881;27;45592;-72
2023/10/24 07:37:47;;;;;;;4.32;1.33;;;17.20;57.60;;;;;;5128373;27;46366;-71
2023/10/24 07:40:16;;;;;;;2.40;1.27;;;17.20;57.50;;;;;;5128575;27;45405;-71
2023/10/24 07:42:43;;;;;;;3.53;1.33;;;17.20;57.60;;;;;;5128640;27;45381;-71
2023/10/24 07:45:11;;;;;;;4.35;1.50;;;17.20;57.60;;;;;;5128287;27;46430;-71
2023/10/24 07:47:38;;;;;;;1.83;1.17;;;17.30;57.70;;;;;;5117688;27;45444;-72
2023/10/24 07:50:06;;;;;;;3.15;1.35;;;17.20;57.60;;;;;;5119020;27;45620;-71
2023/10/24 07:52:32;;;;;;;1.15;1.05;;;17.30;57.80;;;;;;5112355;27;45370;-70
2023/10/24 07:54:59;;;;;;;1.77;1.20;;;17.30;57.70;;;;;;5108032;27;45356;-72
2023/10/24 07:57:29;;;;;;;1.50;1.20;;;17.30;57.70;;;;;;5114930;27;45391;-73
2023/10/24 07:59:55;;;;;;;2.20;1.00;;;17.20;57.70;;;;;;5117065;27;45677;-71
2023/10/24 08:02:22;;;;;;;4.18;1.23;;;17.30;57.80;;;;;;5121974;27;45368;-72
2023/10/24 08:04:49;;;;;;;2.05;1.40;;;17.30;57.80;;;;;;5128409;27;45253;-72
2023/10/24 08:07:16;;;;;;;1.80;1.10;;;17.30;57.80;;;;;;5122912;27;45535;-73
2023/10/24 08:09:43;;;;;;;1.33;1.23;;;17.30;57.80;;;;;;5116813;27;45237;-74
2023/10/24 08:12:11;;;;;;;2.78;1.27;;;17.30;57.80;;;;;;5128220;27;45409;-73
2023/10/24 08:14:39;;;;;;;1.70;0.90;;;17.30;57.90;;;;;;5120605;27;46921;-73
2023/10/24 08:17:06;;;;;;;2.33;1.23;;;17.30;57.80;;;;;;5127075;27;45326;-72
2023/10/24 08:19:33;;;;;;;1.33;1.00;;;17.30;57.80;;;;;;5127905;27;45377;-73
2023/10/24 08:22:00;;;;;;;3.25;1.10;;;17.30;57.80;;;;;;5128381;27;45548;-73
2023/10/24 08:24:27;;;;;;;2.90;1.23;;;17.30;57.80;;;;;;5128030;27;45310;-72
2023/10/24 08:26:54;;;;;;;3.25;1.30;;;17.30;57.80;;;;;;5125090;27;45294;-73
2023/10/24 08:29:21;;;;;;;4.28;1.20;;;17.30;57.80;;;;;;5127054;27;45247;-73
2023/10/24 08:31:49;;;;;;;1.30;1.20;;;17.30;57.80;;;;;;5112825;27;45413;-73
2023/10/24 08:34:16;;;;;;;2.40;1.23;;;17.30;57.90;;;;;;5123458;27;46814;-73
2023/10/24 08:36:43;;;;;;;2.88;1.08;;;17.30;57.80;;;;;;5118134;27;45317;-71
2023/10/24 08:39:10;;;;;;;0.82;0.80;;;17.30;57.90;;;;;;5127261;27;45317;-73
2023/10/24 08:41:37;;;;;;;1.17;1.00;;;17.30;57.80;;;;;;5127471;27;45577;-72
2023/10/24 08:44:04;;;;;;;1.48;1.30;;;17.30;57.90;;;;;;5127541;27;46432;-73
2023/10/24 08:46:31;;;;;;;1.45;0.93;;;17.30;58.00;;;;;;5111354;27;45366;-73
2023/10/24 08:48:59;;;;;;;1.75;1.20;;;17.30;58.10;;;;;;5107150;27;45361;-72
2023/10/24 08:51:26;;;;;;;2.08;1.10;;;17.30;58.20;;;;;;5115246;27;46976;-73
2023/10/24 08:53:53;;;;;;;1.10;1.00;;;17.30;58.20;;;;;;5115824;27;45528;-73
2023/10/24 08:56:20;;;;;;;2.00;1.42;;;17.30;58.90;;;;;;5117256;27;45377;-73
2023/10/24 08:58:47;;;;;;;3.58;1.10;;;17.30;58.60;;;;;;5127643;27;45326;-72
2023/10/24 09:01:14;;;;;;;3.30;1.20;;;17.30;58.50;;;;;;5126774;27;45265;-70
2023/10/24 09:03:40;;;;;;;5.65;1.88;;;17.40;58.50;;;;;;5120508;27;46733;-73
2023/10/24 09:06:08;;;;;;;1.92;1.08;;;17.40;58.40;;;;;;5123160;27;45319;-71
2023/10/24 09:08:35;;;;;;;1.70;1.17;;;17.40;58.50;;;;;;5104010;27;45442;-72
2023/10/24 09:11:02;;;;;;;2.58;1.17;;;17.40;58.50;;;;;;5114459;27;45374;-71
2023/10/24 09:13:29;;;;;;;3.70;1.25;;;17.40;58.40;;;;;;5106339;27;45676;-71
2023/10/24 09:16:06;;;;;;;1.23;1.13;;;17.30;58.40;;;;;;5111389;27;45433;-72
2023/10/24 09:18:35;;;;;;;2.58;1.08;;;17.40;58.40;;;;;;5124166;27;45314;-72
2023/10/24 09:21:02;;;;;;;1.00;0.88;;;17.40;58.40;;;;;;5122767;27;45610;-72
2023/10/24 09:23:32;;;;;;;1.73;0.90;;;17.40;58.40;;;;;;5126318;27;47623;-71
2023/10/24 09:26:02;;;;;;;1.27;1.10;;;17.40;58.40;;;;;;5126127;27;45505;-71
2023/10/24 09:28:29;;;;;;;2.20;1.00;;;17.40;58.40;;;;;;5126374;27;45288;-71
2023/10/24 09:30:57;;;;;;;3.90;1.30;;;17.40;58.40;;;;;;5107482;27;45413;-72
2023/10/24 09:33:25;;;;;;;1.40;1.10;;;17.40;58.40;;;;;;5106438;27;45535;-71
2023/10/24 09:35:52;;;;;;;2.28;1.20;;;17.40;58.30;;;;;;5111603;27;45277;-71
2023/10/24 09:38:20;;;;;;;1.40;1.15;;;17.40;58.30;;;;;;5126783;27;45313;-72
2023/10/24 09:40:48;;;;;;;2.58;1.02;;;17.40;58.40;;;;;;5126916;27;45435;-71
2023/10/24 09:43:19;;;;;;;1.23;0.82;;;17.40;58.40;;;;;;5127034;27;46619;-71
2023/10/24 09:45:46;;;;;;;1.42;1.20;;;17.40;58.40;;;;;;5127117;27;45290;-71
2023/10/24 09:48:13;;;;;;;3.20;0.98;;;17.40;58.50;;;;;;5130114;27;45417;-71
2023/10/24 09:50:40;;;;;;;1.55;0.85;;;17.40;58.40;;;;;;5121663;27;45381;-71
2023/10/24 09:53:07;;;;;;;3.17;1.00;;;17.40;58.40;;;;;;5124481;27;46256;-71
2023/10/24 09:55:35;;;;;;;2.00;1.00;;;17.40;58.40;;;;;;5120561;27;45200;-71
2023/10/24 09:58:04;;;;;;;2.67;1.00;;;17.40;58.40;;;;;;5123736;27;45481;-71
2023/10/24 10:00:31;;;;;;;1.67;0.98;;;17.40;58.30;;;;;;5123808;27;45525;-70
2023/10/24 10:02:58;;;;;;;2.90;0.93;;;17.40;58.30;;;;;;5109474;27;47358;-71
2023/10/24 10:05:26;;;;;;;0.80;0.80;;;17.40;58.30;;;;;;5113892;27;45322;-71
2023/10/24 10:07:53;;;;;;;2.10;0.93;;;17.40;58.30;;;;;;5128976;27;45305;-72
2023/10/24 10:10:20;;;;;;;1.35;0.85;;;17.40;58.30;;;;;;5127338;27;45448;-72
2023/10/24 10:12:47;;;;;;;1.17;0.70;;;17.50;58.30;;;;;;5129526;27;46390;-71
2023/10/24 10:15:25;;;;;;;1.08;0.90;;;17.50;58.30;;;;;;5129958;27;45387;-71
2023/10/24 10:17:54;;;;;;;1.25;0.90;;;17.50;58.30;;;;;;5129811;27;45376;-72
2023/10/24 10:20:40;;;;;;;1.08;0.77;;;17.50;58.30;;;;;;5122110;27;45419;-72
2023/10/24 10:23:19;;;;;;;1.02;0.90;;;17.50;58.20;;;;;;5122026;27;46595;-71
2023/10/24 10:25:52;;;;;;;0.73;0.70;;;17.50;58.30;;;;;;5128868;27;45508;-72
2023/10/24 10:28:29;;;;;;;1.77;1.10;;;17.40;58.30;;;;;;5128722;27;45240;-72
2023/10/24 10:31:07;;;;;;;2.25;1.08;;;17.50;58.30;;;;;;5114965;27;45347;-72
2023/10/24 10:33:34;;;;;;;2.15;1.10;;;17.50;58.40;;;;;;5115482;27;45597;-71
2023/10/24 10:36:02;;;;;;;1.05;0.80;;;17.50;58.30;;;;;;5124541;27;45297;-71
2023/10/24 10:38:50;;;;;;;0.80;0.73;;;17.50;58.40;;;;;;5129403;27;45280;-72
2023/10/24 10:41:36;;;;;;;2.42;0.95;;;17.50;58.40;;;;;;5107358;27;45325;-72
2023/10/24 10:44:05;;;;;;;1.65;0.85;;;17.50;58.40;;;;;;5118753;27;45552;-71
2023/10/24 10:46:33;;;;;;;3.85;0.95;;;17.50;58.30;;;;;;5116983;27;45394;-71
2023/10/24 10:49:02;;;;;;;1.42;1.00;;;17.50;58.30;;;;;;5125189;27;45505;-70
2023/10/24 10:51:30;;;;;;;1.95;0.82;;;17.50;58.90;;;;;;5119856;27;45335;-70
2023/10/24 10:53:58;;;;;;;1.65;0.93;;;17.50;58.40;;;;;;5118794;27;45413;-71
2023/10/24 10:56:30;;;;;;;0.82;0.82;;;17.50;58.30;;;;;;5128944;27;45253;-72
2023/10/24 10:59:14;;;;;;;0.75;0.75;;;17.50;59.10;;;;;;5127822;27;45384;-70
2023/10/24 11:01:46;;;;;;;2.03;0.90;;;17.50;58.40;;;;;;5128035;27;45445;-71
2023/10/24 11:04:14;;;;;;;0.75;0.68;;;17.50;58.50;;;;;;5128870;27;45384;-71
2023/10/24 11:06:42;;;;;;;1.67;0.90;;;17.50;58.60;;;;;;5129092;27;45337;-72
2023/10/24 11:09:09;;;;;;;1.38;1.10;;;17.50;58.40;;;;;;5121660;27;45568;-71
2023/10/24 11:11:38;;;;;;;0.95;0.82;;;17.50;58.40;;;;;;5126093;27;45477;-72
2023/10/24 11:14:22;;;;;;;0.98;0.88;;;17.50;58.40;;;;;;5128996;27;46225;-71
2023/10/24 11:16:52;;;;;;;0.65;0.65;;;17.50;58.50;;;;;;5127164;27;45491;-72
2023/10/24 11:19:20;;;;;;;3.00;0.90;;;17.50;58.60;;;;;;5127133;27;45281;-71
2023/10/24 11:21:47;;;;;;;2.63;0.70;;;17.50;58.60;;;;;;5119171;27;45457;-72
2023/10/24 11:24:17;;;;;;;0.85;0.85;;;17.50;58.40;;;;;;5108943;27;45444;-72
2023/10/24 11:26:44;;;;;;;1.48;0.73;;;17.50;58.50;;;;;;5121172;27;45294;-72
2023/10/24 11:29:13;;;;;;;1.45;0.77;;;17.50;58.40;;;;;;5124846;27;45393;-71
2023/10/24 11:31:39;;;;;;;1.48;0.60;;;17.50;58.40;;;;;;5129008;27;45560;-71
2023/10/24 11:34:08;;;;;;;3.50;1.00;;;17.50;58.40;;;;;;5120049;27;46317;-71
2023/10/24 11:36:34;;;;;;;2.15;0.80;;;17.60;58.40;;;;;;5117794;27;45373;-71
2023/10/24 11:39:04;;;;;;;0.80;0.80;;;17.60;59.10;;;;;;5109945;27;45331;-71
2023/10/24 11:41:30;;;;;;;1.52;1.13;;;17.60;58.40;;;;;;5108913;27;45367;-71
2023/10/24 11:43:57;;;;;;;1.00;0.90;;;17.60;58.30;;;;;;5127322;27;45401;-71
2023/10/24 11:46:24;;;;;;;2.67;0.93;;;17.60;58.20;;;;;;5127405;27;45507;-72
2023/10/24 11:48:51;;;;;;;1.65;0.75;;;17.60;58.10;;;;;;5128782;27;45310;-71
2023/10/24 11:51:19;;;;;;;2.05;0.95;;;17.60;58.10;;;;;;5128776;27;45435;-71
2023/10/24 11:53:46;;;;;;;2.13;1.00;;;17.60;58.20;;;;;;5128341;27;46448;-71
2023/10/24 11:56:13;;;;;;;1.40;0.75;;;17.60;58.50;;;;;;5128031;27;45317;-71
2023/10/24 11:58:41;;;;;;;0.70;0.70;;;17.60;58.50;;;;;;5112360;27;45432;-72
2023/10/24 12:01:08;;;;;;;0.90;0.80;;;17.60;58.50;;;;;;5125117;27;45311;-71
2023/10/24 12:03:46;;;;;;;0.60;0.60;;;17.60;58.50;;;;;;5128080;27;45614;-71
2023/10/24 12:06:13;;;;;;;0.95;0.93;;;17.60;58.50;;;;;;5127540;27;45419;-71
2023/10/24 12:08:43;;;;;;;0.60;0.60;;;17.60;58.50;;;;;;5128128;27;45327;-71
2023/10/24 12:11:10;;;;;;;0.82;0.82;;;17.60;58.50;;;;;;5128006;27;45380;-71
2023/10/24 12:13:37;;;;;;;2.00;0.93;;;17.60;58.40;;;;;;5128325;27;45486;-73
2023/10/24 12:16:04;;;;;;;1.00;0.82;;;17.60;58.40;;;;;;5108061;27;45330;-73
2023/10/24 12:18:31;;;;;;;1.05;0.68;;;17.60;58.40;;;;;;5115760;27;45241;-72
2023/10/24 12:20:58;;;;;;;3.13;0.68;;;17.70;58.30;;;;;;5113201;27;45485;-71
2023/10/24 12:23:25;;;;;;;2.58;0.80;;;17.60;58.30;;;;;;5119555;27;46362;-72
2023/10/24 12:25:54;;;;;;;0.70;0.70;;;17.70;58.30;;;;;;5125548;27;45291;-70
2023/10/24 12:28:21;;;;;;;0.70;0.70;;;17.70;58.30;;;;;;5107745;27;45228;-71
2023/10/24 12:30:47;;;;;;;1.50;0.80;;;17.70;58.40;;;;;;5128567;27;45182;-70
2023/10/24 12:33:14;;;;;;;1.80;0.73;;;17.70;58.40;;;;;;5126408;27;45311;-73
2023/10/24 12:35:41;;;;;;;0.70;0.70;;;17.80;58.40;;;;;;5120332;27;45463;-72
2023/10/24 12:38:08;;;;;;;1.35;0.75;;;17.70;58.40;;;;;;5128215;27;45242;-72
2023/10/24 12:40:37;;;;;;;1.10;0.70;;;17.80;59.00;;;;;;5124135;27;45405;-71
2023/10/24 12:43:06;;;;;;;1.02;0.57;;;17.80;58.50;;;;;;5127637;27;47761;-73
2023/10/24 12:45:32;;;;;;;0.60;0.60;;;17.70;58.70;;;;;;5127101;27;45348;-71
2023/10/24 12:48:01;;;;;;;5.80;1.00;;;17.80;59.00;;;;;;5122152;27;45282;-72
2023/10/24 12:50:28;;;;;;;1.55;1.40;;;17.80;59.20;;;;;;5107501;27;45229;-72